Saturday, November 18, 2017, 11:57 AM GMT
Back to Local

CYQB, Quebec, Que

Location: , , Canada Lat: 46.8
Local Time: 11:57 AM GMT (11:57 GMT) Lon: -71.383
Time Zone: GMT Elev: 229 ft

Show me the last for .
Show Decoded

2017-11-18 11:00 METAR CYQB 181100Z 25007KT 30SM FEW008 M10/M12 A2995 RMK SF1 SF TR SLP148 =
2017-11-18 10:00 METAR CYQB 181000Z 25012KT 15SM FEW008 M10/M12 A2994 RMK SF1 SF TR SLP144 =
2017-11-18 09:00 METAR CYQB 180900Z 22008KT 15SM FEW010 M10/M12 A2994 RMK SC1 SC TR SLP145 =
2017-11-18 08:00 METAR CYQB 180800Z 22007KT 15SM SKC M09/M12 A2994 RMK SLP144 =
2017-11-18 07:00 METAR CYQB 180700Z 23008KT 15SM SKC M09/M12 A2994 RMK SLP146 =
2017-11-18 06:00 METAR CYQB 180600Z 23011KT 15SM SKC M08/M12 A2994 RMK SLP145 =
2017-11-18 05:00 METAR CYQB 180500Z 25003KT 200V320 15SM FEW015 M07/M12 A2996 RMK SC1 SC TR
                 SLP150 =
2017-11-18 04:00 METAR CYQB 180400Z 27008KT 250V320 15SM FEW024 M06/M11 A2996 RMK SC1 SC TR
                 SLP150 =
2017-11-18 03:00 METAR CYQB 180300Z 28016G22KT 15SM FEW024 M06/M11 A2997 RMK SC1 PRESFR SLP154 =
2017-11-18 02:00 METAR CYQB 180200Z 26012KT 15SM BKN028 M05/M10 A2999 RMK SC6 SLP160 =
2017-11-18 01:00 METAR CYQB 180100Z 27010KT 15SM OVC025 M04/M09 A2999 RMK SC8 SLP160 =
2017-11-18 00:00 METAR CYQB 180000Z 25007KT 15SM OVC025 M04/M09 A3000 RMK SC8 SLP166 =
2017-11-17 23:00 METAR CYQB 172300Z 26008KT 15SM OVC027 M04/M09 A2998 RMK SC8 SLP159 =
2017-11-17 22:23 METAR CYQB 172223Z 27014KT 15SM BKN030 M04/M10 A2998 RMK SC7 SLP158 =
2017-11-17 22:00 METAR CYQB 172200Z 27011KT 15SM -SN BKN029 M04/M09 A2997 RMK SC7 SLP155 =
2017-11-17 21:27 METAR CYQB 172127Z 26015KT 15SM -SN BKN025 M04/M09 A2997 RMK SC7 SLP153 =
2017-11-17 21:00 METAR CYQB 172100Z 27012KT 15SM BKN025 M04/M09 A2996 RMK SC7 SLP152 =
2017-11-17 20:00 METAR CYQB 172000Z 29012G22KT 30SM SCT030 M03/M09 A2993 RMK SC3 SLP141 =
2017-11-17 19:00 METAR CYQB 171900Z 29012G25KT 30SM BKN032 M02/M09 A2991 RMK SC5 SLP133 =
2017-11-17 18:00 METAR CYQB 171800Z 28013G19KT 30SM BKN034 M03/M09 A2989 RMK SC6 SLP128 =
2017-11-17 17:00 METAR CYQB 171700Z 27014G24KT 30SM BKN030 M03/M08 A2989 RMK SC6 SLP126 =
2017-11-17 16:00 METAR CYQB 171600Z 30012G20KT 30SM BKN027 M02/M08 A2988 RMK SC6 SLP124 =
2017-11-17 15:00 METAR CYQB 171500Z 27013KT 30SM BKN028 M01/M07 A2988 RMK SC6 SLP122 =
2017-11-17 14:00 METAR CYQB 171400Z 31020G32KT 30SM SCT027 M01/M06 A2983 RMK SC4 SLP107 =
2017-11-17 13:00 METAR CYQB 171300Z 30016G22KT 30SM SCT030 BKN090 BKN120 M00/M06 A2983 RMK
                 SC4AC1AC1 SLP105 =
2017-11-17 12:00 METAR CYQB 171200Z 30014G20KT 30SM BKN030 BKN090 01/M04 A2979 RMK SC6AC1 PRESRR
                 SLP094 =

Support USWX by starting your Amazon purchase here.